Flugplatz Pennewitz

Für EDOS sind keine METAR/TAF Berichte vorhanden.
Es werden die Flugwettermeldungen vom Flugplatz Erfurt in 35 km Entfernung angezeigt.

Bericht für EDDE

vom 07.08. um 16:50 UTC

Wind 7 kt aus 20°

Sichtweite 10 km oder mehr

gute Sicht, keine Wolken < 5000 ft, keine CB, keine Wettererscheinungen (CAVOK)

Temperatur 31.0°C

Taupunkt 12.0°C

Luftfeuchtigkeit 31%

Luftdruck 1020 hPa

keine wesentliche Wetteränderung innerhalb den nächsten 2 Stunden zu erwarten

EDDE 071650Z 02007KT 340V050 CAVOK 31/12 Q1020 NOSIG

Prognose für EDDE

vom 07.08. um 11:00 UTC

Zwischen 12:00 UTC und 20:00 UTC

Wind 5 kt aus 80°

Sichtweite 10 km oder mehr

keine signifikanten Wettererscheinungen

keine Wolken


Zwischen 20:00 und 22:00 UTC übergehend zu

variable Windrichtung mit 3 kt

Sichtweite 10 km oder mehr

keine signifikanten Wettererscheinungen

keine Wolken

TAF EDDE 071100Z 0712/0812 08005KT CAVOK BECMG 0720/0722 VRB03KT
Impressum